Time;durP1;ratioP1;P1;durP2;ratioP2;P2;SDS_P1;SDS_P2;PMS_P1;PMS_P2;Temp;Humidity;BMP_temperature;BMP_pressure;BME280_temperature;BME280_humidity;BME280_pressure;Samples;Min_cycle;Max_cycle;Signal;HPM_P1;HPM_P2
2023/12/24 00:01:02;;;;;;;2.65;0.55;;;9.80;99.90;;;;;;4967595;28;20059;-75
2023/12/24 00:03:28;;;;;;;1.58;0.38;;;9.80;99.90;;;;;;4980662;28;20693;-75
2023/12/24 00:05:54;;;;;;;2.25;1.27;;;9.80;99.90;;;;;;4969845;28;20046;-75
2023/12/24 00:08:20;;;;;;;0.30;0.30;;;9.80;99.90;;;;;;4983083;28;20383;-76
2023/12/24 00:10:45;;;;;;;0.52;0.40;;;9.80;99.90;;;;;;5002449;28;20486;-76
2023/12/24 00:13:11;;;;;;;1.55;0.80;;;9.80;99.90;;;;;;4985460;28;20038;-75
2023/12/24 00:15:37;;;;;;;5.15;0.82;;;9.80;99.90;;;;;;4988100;28;20689;-75
2023/12/24 00:18:03;;;;;;;4.47;0.73;;;9.80;99.90;;;;;;4956197;28;20043;-75
2023/12/24 00:20:28;;;;;;;0.40;0.10;;;9.80;99.90;;;;;;4967471;28;20380;-75
2023/12/24 00:23:05;;;;;;;2.63;0.68;;;9.80;99.90;;;;;;4950903;28;20042;-75
2023/12/24 00:25:31;;;;;;;2.78;0.47;;;9.80;99.90;;;;;;4999901;28;20042;-75
2023/12/24 00:27:58;;;;;;;8.90;0.68;;;9.80;99.90;;;;;;4963594;28;20523;-75
2023/12/24 00:30:26;;;;;;;0.30;0.30;;;9.80;99.90;;;;;;4994405;28;20043;-75
2023/12/24 00:33:00;;;;;;;0.77;0.38;;;9.80;99.90;;;;;;4996932;28;20050;-75
2023/12/24 00:35:27;;;;;;;4.20;0.75;;;9.80;99.90;;;;;;4965282;28;20046;-75
2023/12/24 00:37:56;;;;;;;0.15;0.15;;;9.90;99.90;;;;;;4955618;28;20075;-75
2023/12/24 00:40:22;;;;;;;1.75;0.77;;;9.80;99.90;;;;;;4958950;28;20050;-75
2023/12/24 00:42:47;;;;;;;1.40;0.82;;;9.80;99.90;;;;;;4980183;28;20050;-75
2023/12/24 00:45:13;;;;;;;1.98;0.25;;;9.80;99.90;;;;;;4967673;28;20490;-75
2023/12/24 00:47:39;;;;;;;2.03;0.17;;;9.80;99.90;;;;;;4961502;28;20053;-75
2023/12/24 00:50:07;;;;;;;3.30;0.22;;;9.80;99.90;;;;;;4993738;28;20063;-75
2023/12/24 00:52:34;;;;;;;2.85;0.52;;;9.90;99.90;;;;;;4998139;28;20032;-75
2023/12/24 00:54:59;;;;;;;1.02;0.35;;;9.90;99.90;;;;;;4962585;28;20641;-76
2023/12/24 00:57:25;;;;;;;0.50;0.20;;;9.90;99.90;;;;;;4964450;28;20125;-76
2023/12/24 00:59:51;;;;;;;0.98;0.20;;;9.90;99.90;;;;;;4994491;28;20603;-76
2023/12/24 01:02:16;;;;;;;1.10;0.45;;;9.90;99.90;;;;;;4949442;28;20062;-76
2023/12/24 01:04:43;;;;;;;0.32;0.22;;;9.90;99.90;;;;;;4987178;28;20054;-76
2023/12/24 01:07:08;;;;;;;2.13;0.47;;;9.80;99.90;;;;;;4965367;28;20066;-76
2023/12/24 01:09:36;;;;;;;1.77;0.63;;;9.90;99.90;;;;;;4960189;28;20040;-76
2023/12/24 01:12:02;;;;;;;0.57;0.30;;;9.90;99.90;;;;;;4968007;28;20049;-76
2023/12/24 01:14:28;;;;;;;1.30;0.30;;;9.90;99.90;;;;;;4959647;28;20122;-76
2023/12/24 01:16:54;;;;;;;2.05;0.32;;;9.90;99.90;;;;;;4962749;28;20473;-76
2023/12/24 01:19:20;;;;;;;3.20;0.77;;;9.90;99.90;;;;;;4995012;28;20113;-76
2023/12/24 01:21:46;;;;;;;1.17;0.40;;;9.90;99.90;;;;;;4949088;28;20061;-76
2023/12/24 01:24:12;;;;;;;0.30;0.22;;;9.90;99.90;;;;;;4987054;28;20065;-76
2023/12/24 01:26:39;;;;;;;0.80;0.15;;;9.90;99.90;;;;;;4963136;28;20043;-76
2023/12/24 01:29:05;;;;;;;1.45;0.30;;;9.90;99.90;;;;;;4966019;28;20065;-76
2023/12/24 01:31:30;;;;;;;5.47;0.75;;;9.90;99.90;;;;;;4958665;28;20034;-76
2023/12/24 01:33:56;;;;;;;1.02;0.15;;;9.90;99.90;;;;;;4992615;28;20476;-76
2023/12/24 01:36:22;;;;;;;1.63;1.08;;;9.90;99.90;;;;;;4957410;28;20039;-77
2023/12/24 01:38:48;;;;;;;2.20;0.90;;;9.90;99.90;;;;;;4982046;28;20555;-76
2023/12/24 01:41:14;;;;;;;2.50;0.50;;;9.90;99.90;;;;;;4964424;28;20435;-77
2023/12/24 01:43:44;;;;;;;0.85;0.10;;;9.90;99.90;;;;;;4964624;28;20046;-76
2023/12/24 01:46:12;;;;;;;0.65;0.30;;;9.90;99.90;;;;;;4964892;28;20126;-77
2023/12/24 01:48:39;;;;;;;0.00;0.00;;;9.90;99.90;;;;;;4968898;28;20394;-76
2023/12/24 01:51:05;;;;;;;0.30;0.25;;;9.90;99.90;;;;;;4962902;28;20031;-76
2023/12/24 01:53:32;;;;;;;0.90;0.77;;;9.90;99.90;;;;;;4952333;28;20960;-76
2023/12/24 01:56:00;;;;;;;2.75;0.20;;;9.90;99.90;;;;;;4963653;28;20043;-77
2023/12/24 01:58:27;;;;;;;0.13;0.10;;;9.90;99.90;;;;;;4980242;28;20400;-77
2023/12/24 02:00:53;;;;;;;0.38;0.20;;;9.90;99.90;;;;;;4975205;28;20062;-77
2023/12/24 02:03:20;;;;;;;0.80;0.65;;;10.00;99.90;;;;;;4963490;28;20046;-76
2023/12/24 02:05:47;;;;;;;2.60;0.30;;;9.90;99.90;;;;;;4995082;28;20047;-77
2023/12/24 02:08:14;;;;;;;2.20;0.10;;;9.90;99.90;;;;;;4985287;28;20047;-76
2023/12/24 02:10:41;;;;;;;1.40;0.32;;;9.90;99.90;;;;;;4996071;28;20114;-77
2023/12/24 02:13:07;;;;;;;1.02;0.63;;;9.90;99.90;;;;;;4965459;28;20533;-76
2023/12/24 02:15:32;;;;;;;0.10;0.10;;;10.00;99.90;;;;;;4967897;28;20043;-76
2023/12/24 02:17:59;;;;;;;0.00;0.00;;;10.00;99.90;;;;;;4965522;28;20400;-76
2023/12/24 02:20:26;;;;;;;0.20;0.05;;;10.00;99.90;;;;;;4995208;28;20057;-76
2023/12/24 02:22:52;;;;;;;0.63;0.10;;;10.00;99.90;;;;;;4988764;28;20047;-76
2023/12/24 02:25:18;;;;;;;1.75;0.60;;;10.00;99.90;;;;;;4985449;28;20081;-76
2023/12/24 02:27:49;;;;;;;0.00;0.00;;;10.00;99.90;;;;;;4991427;28;20106;-76
2023/12/24 02:30:20;;;;;;;0.40;0.40;;;10.00;99.90;;;;;;4970931;28;20046;-76
2023/12/24 02:32:53;;;;;;;1.33;0.30;;;10.00;99.90;;;;;;4951372;28;20125;-75
2023/12/24 02:35:19;;;;;;;0.08;0.08;;;10.00;99.90;;;;;;4965348;28;20038;-76
2023/12/24 02:37:45;;;;;;;0.38;0.25;;;10.10;99.90;;;;;;4961814;28;20118;-76
2023/12/24 02:40:10;;;;;;;0.90;0.32;;;10.00;99.90;;;;;;4984850;28;20496;-76
2023/12/24 02:42:36;;;;;;;3.72;0.22;;;10.10;99.90;;;;;;4959973;28;20042;-76
2023/12/24 02:45:02;;;;;;;2.10;0.32;;;10.10;99.90;;;;;;4964515;28;20114;-76
2023/12/24 02:47:28;;;;;;;4.15;0.57;;;10.00;99.90;;;;;;4963419;28;20051;-76
2023/12/24 02:49:53;;;;;;;0.43;0.13;;;10.00;99.90;;;;;;4968496;28;20046;-76
2023/12/24 02:52:19;;;;;;;0.17;0.10;;;10.00;99.90;;;;;;4959408;28;20131;-76
2023/12/24 02:54:45;;;;;;;0.55;0.20;;;10.00;99.90;;;;;;4968027;28;20046;-76
2023/12/24 02:57:10;;;;;;;0.60;0.25;;;10.00;99.90;;;;;;4977073;28;20051;-76
2023/12/24 02:59:36;;;;;;;0.00;0.00;;;10.00;99.90;;;;;;4996117;28;20628;-76
2023/12/24 03:02:02;;;;;;;0.45;0.30;;;10.10;99.90;;;;;;4967015;28;20073;-76
2023/12/24 03:04:27;;;;;;;0.10;0.10;;;10.10;99.90;;;;;;4979376;28;20499;-76
2023/12/24 03:06:53;;;;;;;0.30;0.10;;;10.00;99.90;;;;;;4963666;28;20046;-76
2023/12/24 03:09:19;;;;;;;0.50;0.10;;;10.00;99.90;;;;;;4959264;28;20150;-76
2023/12/24 03:11:45;;;;;;;0.20;0.20;;;10.00;99.90;;;;;;4966305;28;20452;-76
2023/12/24 03:14:10;;;;;;;0.00;0.00;;;10.10;99.90;;;;;;4982267;28;20035;-75
2023/12/24 03:16:36;;;;;;;0.30;0.20;;;10.10;99.90;;;;;;4996641;28;20034;-76
2023/12/24 03:19:02;;;;;;;4.65;0.20;;;10.00;99.90;;;;;;4961348;28;20053;-76
2023/12/24 03:21:27;;;;;;;1.92;0.28;;;10.10;99.90;;;;;;4962145;28;20453;-75
2023/12/24 03:23:53;;;;;;;0.75;0.40;;;10.10;99.90;;;;;;4976516;28;20122;-76
2023/12/24 03:26:23;;;;;;;0.05;0.00;;;10.10;99.90;;;;;;4994887;28;20140;-76
2023/12/24 03:28:49;;;;;;;0.20;0.10;;;10.10;99.90;;;;;;4942568;28;20039;-76
2023/12/24 03:31:15;;;;;;;0.55;0.25;;;10.10;99.90;;;;;;4962891;28;20086;-76
2023/12/24 03:33:41;;;;;;;0.25;0.10;;;10.10;99.90;;;;;;4967729;28;20065;-76
2023/12/24 03:36:08;;;;;;;0.30;0.17;;;10.10;99.90;;;;;;4947312;28;20043;-76
2023/12/24 03:38:34;;;;;;;0.63;0.13;;;10.10;99.90;;;;;;4996383;28;20042;-76
2023/12/24 03:40:59;;;;;;;0.20;0.10;;;10.10;99.90;;;;;;4986702;28;20047;-76
2023/12/24 03:43:25;;;;;;;0.30;0.20;;;10.10;99.90;;;;;;4966262;28;20112;-76
2023/12/24 03:45:51;;;;;;;4.70;0.40;;;10.10;99.90;;;;;;4964631;28;20046;-76
2023/12/24 03:48:16;;;;;;;0.40;0.20;;;10.20;99.90;;;;;;4966435;28;20035;-76
2023/12/24 03:50:43;;;;;;;0.35;0.10;;;10.10;99.90;;;;;;4958782;28;20391;-76
2023/12/24 03:53:09;;;;;;;1.80;0.25;;;10.10;99.90;;;;;;4960199;28;20126;-76
2023/12/24 03:55:34;;;;;;;0.15;0.10;;;10.10;99.90;;;;;;4994070;28;20420;-76
2023/12/24 03:58:00;;;;;;;0.17;0.17;;;10.10;99.90;;;;;;4998626;28;20050;-76
2023/12/24 04:00:26;;;;;;;0.10;0.10;;;10.10;99.90;;;;;;4955253;28;20137;-76
2023/12/24 04:02:54;;;;;;;0.52;0.03;;;10.20;99.90;;;;;;4983039;28;20062;-76
2023/12/24 04:05:19;;;;;;;0.43;0.03;;;10.20;99.90;;;;;;4964133;28;20511;-76
2023/12/24 04:07:45;;;;;;;0.10;0.00;;;10.20;99.90;;;;;;4969468;28;20043;-76
2023/12/24 04:10:11;;;;;;;0.00;0.00;;;10.20;99.90;;;;;;5000557;28;20244;-76
2023/12/24 04:12:37;;;;;;;0.00;0.00;;;10.20;99.90;;;;;;4965499;28;20035;-76
2023/12/24 04:15:05;;;;;;;1.45;0.35;;;10.20;99.90;;;;;;4993311;28;20384;-75
2023/12/24 04:17:30;;;;;;;0.00;0.00;;;10.20;99.90;;;;;;4966483;28;20529;-76
2023/12/24 04:19:56;;;;;;;0.00;0.00;;;10.20;99.90;;;;;;4948114;28;20179;-75
2023/12/24 04:22:22;;;;;;;0.30;0.00;;;10.20;99.90;;;;;;4965355;28;20035;-76
2023/12/24 04:24:48;;;;;;;0.20;0.00;;;10.20;99.90;;;;;;4967298;28;20517;-76
2023/12/24 04:27:13;;;;;;;0.08;0.00;;;10.20;99.90;;;;;;4954275;28;20038;-76
2023/12/24 04:29:39;;;;;;;0.10;0.00;;;10.20;99.90;;;;;;4965115;28;20094;-75
2023/12/24 04:32:05;;;;;;;0.55;0.00;;;10.30;99.90;;;;;;4998323;28;20027;-76
2023/12/24 04:34:31;;;;;;;0.00;0.00;;;10.20;99.90;;;;;;4965493;28;20038;-76
2023/12/24 04:36:57;;;;;;;0.00;0.00;;;10.30;99.90;;;;;;4949950;28;20158;-76
2023/12/24 04:39:24;;;;;;;0.00;0.00;;;10.30;99.90;;;;;;4999084;28;20133;-76
2023/12/24 04:41:50;;;;;;;0.00;0.00;;;10.30;99.90;;;;;;4991258;28;20508;-76
2023/12/24 04:44:16;;;;;;;0.00;0.00;;;10.40;99.90;;;;;;4968771;28;20133;-76
2023/12/24 04:46:43;;;;;;;0.00;0.00;;;10.40;99.90;;;;;;4958483;28;20588;-76
2023/12/24 04:49:09;;;;;;;1.27;0.20;;;10.40;99.90;;;;;;4982304;28;20043;-76
2023/12/24 04:51:35;;;;;;;1.27;0.28;;;10.40;99.90;;;;;;4966783;28;20035;-76
2023/12/24 04:54:01;;;;;;;0.22;0.10;;;10.40;99.90;;;;;;4967043;28;20034;-76
2023/12/24 04:56:27;;;;;;;0.08;0.00;;;10.40;99.90;;;;;;4966496;28;20507;-76
2023/12/24 04:58:53;;;;;;;0.00;0.00;;;10.40;99.90;;;;;;4969540;28;20043;-76
2023/12/24 05:01:19;;;;;;;0.00;0.00;;;10.40;99.90;;;;;;4953106;28;20043;-76
2023/12/24 05:03:45;;;;;;;0.03;0.00;;;10.50;99.90;;;;;;4965493;28;20116;-76
2023/12/24 05:06:11;;;;;;;3.30;0.22;;;10.50;99.90;;;;;;4959863;28;20131;-76
2023/12/24 05:08:39;;;;;;;0.45;0.10;;;10.50;99.90;;;;;;4997547;28;20379;-76
2023/12/24 05:11:06;;;;;;;0.00;0.00;;;10.50;99.90;;;;;;4970346;28;20043;-76
2023/12/24 05:13:32;;;;;;;0.03;0.03;;;10.50;99.90;;;;;;4951141;28;20050;-75
2023/12/24 05:15:58;;;;;;;0.00;0.00;;;10.60;99.90;;;;;;4946683;28;20054;-76
2023/12/24 05:18:23;;;;;;;0.00;0.00;;;10.50;99.90;;;;;;4980885;28;20039;-75
2023/12/24 05:20:49;;;;;;;0.10;0.10;;;10.60;99.90;;;;;;4965107;28;20054;-76
2023/12/24 05:23:17;;;;;;;0.90;0.00;;;10.60;99.90;;;;;;4976215;28;20038;-76
2023/12/24 05:25:42;;;;;;;0.20;0.10;;;10.60;99.90;;;;;;4961615;28;20514;-76
2023/12/24 05:28:09;;;;;;;1.58;0.17;;;10.60;99.90;;;;;;4959154;28;20047;-76
2023/12/24 05:30:35;;;;;;;0.10;0.10;;;10.70;99.90;;;;;;4963419;28;20038;-76
2023/12/24 05:33:00;;;;;;;0.00;0.00;;;10.60;99.90;;;;;;4963490;28;20680;-76
2023/12/24 05:35:26;;;;;;;0.85;0.10;;;10.60;99.90;;;;;;4965303;28;20039;-76
2023/12/24 05:37:52;;;;;;;0.00;0.00;;;10.70;99.90;;;;;;4965441;28;20045;-76
2023/12/24 05:40:18;;;;;;;0.90;0.10;;;10.60;99.90;;;;;;4979402;28;20047;-76
2023/12/24 05:42:43;;;;;;;2.95;0.05;;;10.70;99.90;;;;;;4994850;28;20051;-76
2023/12/24 05:45:11;;;;;;;0.68;0.30;;;10.70;99.90;;;;;;4993945;28;20053;-76
2023/12/24 05:47:37;;;;;;;0.45;0.20;;;10.70;99.90;;;;;;4994932;28;20047;-76
2023/12/24 05:50:09;;;;;;;0.30;0.05;;;10.70;99.90;;;;;;4957888;28;20092;-76
2023/12/24 05:52:35;;;;;;;2.05;0.15;;;10.70;99.90;;;;;;4963663;28;20066;-76
2023/12/24 05:55:01;;;;;;;0.45;0.35;;;10.70;99.90;;;;;;4982151;28;20073;-76
2023/12/24 05:57:27;;;;;;;0.10;0.10;;;10.70;99.90;;;;;;4969315;28;20042;-76
2023/12/24 05:59:53;;;;;;;1.75;0.43;;;10.80;99.90;;;;;;4957788;28;20035;-76
2023/12/24 06:02:19;;;;;;;0.95;0.20;;;10.70;99.90;;;;;;4966005;28;20042;-76
2023/12/24 06:04:45;;;;;;;1.13;0.38;;;10.70;99.90;;;;;;4965659;28;20571;-76
2023/12/24 06:07:10;;;;;;;0.88;0.38;;;10.70;99.90;;;;;;4997338;28;20118;-76
2023/12/24 06:09:36;;;;;;;0.28;0.13;;;10.80;99.90;;;;;;4959773;28;20143;-76
2023/12/24 06:12:03;;;;;;;0.13;0.10;;;10.80;99.90;;;;;;4997249;28;20559;-76
2023/12/24 06:14:29;;;;;;;2.75;0.73;;;10.80;99.90;;;;;;4947622;28;20066;-76
2023/12/24 06:16:55;;;;;;;0.45;0.35;;;10.80;99.90;;;;;;4962065;28;20042;-76
2023/12/24 06:19:20;;;;;;;0.82;0.20;;;10.80;99.90;;;;;;4956972;28;20043;-76
2023/12/24 06:21:46;;;;;;;0.15;0.10;;;10.80;99.90;;;;;;4962373;28;20074;-76
2023/12/24 06:24:12;;;;;;;0.17;0.17;;;10.80;99.90;;;;;;4959283;28;20043;-76
2023/12/24 06:26:38;;;;;;;0.10;0.10;;;10.90;99.90;;;;;;4962387;28;20043;-76
2023/12/24 06:29:04;;;;;;;0.65;0.30;;;10.90;99.90;;;;;;4962993;28;20047;-76
2023/12/24 06:31:29;;;;;;;0.10;0.10;;;10.90;99.90;;;;;;4961155;28;20057;-76
2023/12/24 06:33:55;;;;;;;0.10;0.10;;;10.90;99.90;;;;;;4966203;28;20122;-76
2023/12/24 06:36:21;;;;;;;5.88;0.75;;;10.90;99.90;;;;;;4991842;28;20126;-76
2023/12/24 06:38:46;;;;;;;2.05;0.68;;;10.90;99.90;;;;;;4966105;28;20074;-76
2023/12/24 06:41:12;;;;;;;0.95;0.60;;;11.00;99.90;;;;;;4960796;28;20043;-76
2023/12/24 06:43:38;;;;;;;0.20;0.20;;;11.00;99.90;;;;;;4955553;28;20523;-76
2023/12/24 06:46:11;;;;;;;3.40;1.05;;;11.00;99.90;;;;;;4960269;28;20492;-76
2023/12/24 06:48:39;;;;;;;1.30;0.77;;;11.00;99.90;;;;;;4954053;28;20042;-76
2023/12/24 06:51:05;;;;;;;4.80;0.80;;;11.00;99.90;;;;;;4951316;28;20094;-76
2023/12/24 06:53:31;;;;;;;0.25;0.22;;;11.10;99.90;;;;;;4995172;28;20567;-76
2023/12/24 06:55:56;;;;;;;1.35;0.57;;;11.00;99.90;;;;;;4966787;28;20046;-76
2023/12/24 06:58:22;;;;;;;1.00;0.10;;;11.10;99.90;;;;;;4963631;28;20086;-76
2023/12/24 07:00:48;;;;;;;1.20;0.40;;;11.10;99.90;;;;;;4957563;28;20082;-76
2023/12/24 07:03:13;;;;;;;3.00;0.77;;;11.10;99.90;;;;;;4986645;28;20054;-76
2023/12/24 07:05:40;;;;;;;0.95;0.30;;;11.10;99.90;;;;;;4977463;28;20082;-76
2023/12/24 07:08:07;;;;;;;1.75;0.98;;;11.10;99.90;;;;;;4988489;28;20582;-76
2023/12/24 07:10:34;;;;;;;6.20;0.80;;;11.10;99.90;;;;;;4975197;28;20093;-76
2023/12/24 07:12:59;;;;;;;3.45;0.55;;;11.20;99.90;;;;;;4972044;28;20545;-76
2023/12/24 07:15:25;;;;;;;1.13;0.77;;;11.20;99.90;;;;;;4968782;28;20034;-76
2023/12/24 07:17:51;;;;;;;1.65;0.30;;;11.20;99.90;;;;;;4995424;28;20038;-76
2023/12/24 07:20:16;;;;;;;3.15;0.50;;;11.20;99.90;;;;;;4967404;28;20567;-76
2023/12/24 07:22:42;;;;;;;1.58;0.40;;;11.10;99.90;;;;;;4952413;28;20122;-76
2023/12/24 07:25:09;;;;;;;0.30;0.25;;;11.20;99.90;;;;;;4965305;28;20573;-76
2023/12/24 07:27:35;;;;;;;0.52;0.30;;;11.20;99.90;;;;;;4980926;28;20074;-76
2023/12/24 07:30:01;;;;;;;0.88;0.47;;;11.20;99.90;;;;;;4997025;28;20085;-76
2023/12/24 07:32:27;;;;;;;6.47;1.02;;;11.20;99.90;;;;;;4962954;28;20053;-76
2023/12/24 07:34:52;;;;;;;0.65;0.60;;;11.30;99.90;;;;;;4962446;28;20042;-76
2023/12/24 07:37:18;;;;;;;0.25;0.20;;;11.30;99.90;;;;;;4978828;28;20062;-76
2023/12/24 07:39:44;;;;;;;0.75;0.65;;;11.30;99.90;;;;;;4995766;28;20499;-76
2023/12/24 07:42:09;;;;;;;2.33;1.23;;;11.30;99.90;;;;;;4964246;28;20047;-76
2023/12/24 07:44:35;;;;;;;2.03;0.25;;;11.30;99.90;;;;;;4963589;28;20062;-76
2023/12/24 07:47:01;;;;;;;1.40;0.40;;;11.40;99.90;;;;;;4994949;28;20046;-76
2023/12/24 07:49:27;;;;;;;1.27;0.40;;;11.40;99.90;;;;;;4951097;28;20383;-76
2023/12/24 07:51:53;;;;;;;0.52;0.28;;;11.30;99.90;;;;;;4966670;28;20067;-76
2023/12/24 07:54:19;;;;;;;2.17;0.40;;;11.40;99.90;;;;;;4976786;28;20075;-76
2023/12/24 07:56:44;;;;;;;0.68;0.15;;;11.40;99.90;;;;;;4969938;28;20531;-76
2023/12/24 07:59:10;;;;;;;2.17;0.80;;;11.40;99.90;;;;;;4979772;28;20142;-76
2023/12/24 08:01:39;;;;;;;2.75;0.90;;;11.40;99.90;;;;;;4965659;28;20058;-76
2023/12/24 08:04:05;;;;;;;4.03;0.52;;;11.40;99.90;;;;;;4993297;28;20141;-76
2023/12/24 08:06:31;;;;;;;3.03;0.30;;;11.40;99.90;;;;;;4955091;28;20078;-76
2023/12/24 08:08:57;;;;;;;0.10;0.10;;;11.50;99.90;;;;;;4976928;28;20105;-76
2023/12/24 08:11:24;;;;;;;1.98;1.02;;;11.40;99.90;;;;;;4949258;28;20035;-76
2023/12/24 08:13:49;;;;;;;7.63;0.60;;;11.50;99.90;;;;;;4978510;28;20125;-76
2023/12/24 08:16:15;;;;;;;0.95;0.50;;;11.50;99.90;;;;;;4965458;28;20145;-76
2023/12/24 08:18:41;;;;;;;5.82;0.82;;;11.50;99.90;;;;;;4963918;28;20495;-76
2023/12/24 08:21:10;;;;;;;2.88;0.95;;;11.50;99.90;;;;;;4981151;28;20039;-76
2023/12/24 08:23:39;;;;;;;2.33;0.50;;;11.50;99.90;;;;;;4953487;28;20102;-76
2023/12/24 08:26:05;;;;;;;0.60;0.35;;;11.60;99.90;;;;;;4954578;28;20066;-76
2023/12/24 08:28:31;;;;;;;1.38;0.82;;;11.60;99.90;;;;;;4995104;28;20395;-76
2023/12/24 08:30:57;;;;;;;2.55;0.30;;;11.60;99.90;;;;;;4967125;28;20105;-76
2023/12/24 08:33:22;;;;;;;1.77;0.68;;;11.60;99.90;;;;;;4966138;28;20070;-76
2023/12/24 08:35:48;;;;;;;2.28;0.63;;;11.60;99.90;;;;;;4967023;28;20757;-76
2023/12/24 08:38:14;;;;;;;2.70;0.85;;;11.70;99.90;;;;;;4962977;28;20054;-76
2023/12/24 08:40:40;;;;;;;2.40;0.77;;;11.70;99.90;;;;;;4962545;28;20039;-76
2023/12/24 08:43:05;;;;;;;2.45;0.38;;;11.70;99.90;;;;;;4964297;28;20051;-76
2023/12/24 08:45:31;;;;;;;3.42;0.93;;;11.70;99.90;;;;;;4954335;28;20046;-76
2023/12/24 08:47:57;;;;;;;5.50;0.63;;;11.70;99.90;;;;;;4968098;28;20039;-76
2023/12/24 08:50:23;;;;;;;1.65;0.85;;;11.70;99.90;;;;;;4942613;28;20109;-76
2023/12/24 08:52:49;;;;;;;4.05;0.45;;;11.80;99.90;;;;;;5001611;28;20402;-76
2023/12/24 08:55:15;;;;;;;1.98;0.57;;;11.80;99.90;;;;;;4963865;28;20126;-76
2023/12/24 08:57:44;;;;;;;0.20;0.20;;;11.80;99.90;;;;;;4970283;28;20153;-76
2023/12/24 09:00:11;;;;;;;0.52;0.30;;;11.80;99.90;;;;;;4954102;28;20122;-76
2023/12/24 09:02:38;;;;;;;1.67;0.57;;;11.70;99.90;;;;;;4970754;28;20138;-76
2023/12/24 09:05:07;;;;;;;1.85;0.73;;;11.80;99.90;;;;;;4986141;28;20407;-76
2023/12/24 09:07:34;;;;;;;0.45;0.22;;;11.80;99.90;;;;;;4964934;28;20122;-75
2023/12/24 09:10:00;;;;;;;3.03;0.40;;;11.80;99.90;;;;;;4979815;28;20102;-76
2023/12/24 09:12:25;;;;;;;2.13;0.47;;;11.90;99.90;;;;;;4957691;28;20030;-75
2023/12/24 09:14:51;;;;;;;0.40;0.22;;;11.80;99.90;;;;;;4964789;28;20070;-76
2023/12/24 09:17:17;;;;;;;0.60;0.20;;;11.80;99.90;;;;;;4964087;28;20030;-76
2023/12/24 09:19:42;;;;;;;0.40;0.20;;;11.90;99.90;;;;;;4972705;28;20457;-76
2023/12/24 09:22:08;;;;;;;0.85;0.20;;;11.90;99.90;;;;;;4961061;28;20046;-76
2023/12/24 09:24:34;;;;;;;0.10;0.10;;;11.80;99.90;;;;;;4955312;28;20034;-76
2023/12/24 09:27:00;;;;;;;3.53;0.45;;;11.90;99.90;;;;;;4961506;28;20064;-76
2023/12/24 09:29:26;;;;;;;0.43;0.43;;;11.90;99.90;;;;;;4964692;28;20043;-76
2023/12/24 09:31:52;;;;;;;3.90;0.32;;;11.90;99.90;;;;;;4968164;28;20045;-76
2023/12/24 09:34:18;;;;;;;3.72;0.85;;;11.90;99.90;;;;;;4963547;28;20089;-76
2023/12/24 09:36:44;;;;;;;0.68;0.35;;;11.90;99.90;;;;;;4990165;28;20054;-76
2023/12/24 09:39:10;;;;;;;14.27;7.15;;;12.00;99.90;;;;;;4971057;28;20042;-76
2023/12/24 09:41:39;;;;;;;1.60;0.63;;;12.00;99.90;;;;;;4958742;28;20146;-76
2023/12/24 09:44:08;;;;;;;0.25;0.10;;;12.00;99.90;;;;;;4994259;28;20617;-76
2023/12/24 09:46:34;;;;;;;0.88;0.20;;;12.00;99.90;;;;;;4962586;28;20050;-76
2023/12/24 09:48:59;;;;;;;3.75;0.55;;;12.00;99.90;;;;;;4992124;28;20574;-76
2023/12/24 09:51:29;;;;;;;0.55;0.20;;;12.10;99.90;;;;;;4973555;28;20468;-76
2023/12/24 09:53:55;;;;;;;0.88;0.32;;;12.10;99.90;;;;;;4987744;28;20502;-76
2023/12/24 09:56:21;;;;;;;0.17;0.13;;;12.10;99.90;;;;;;4943964;28;20047;-76
2023/12/24 09:58:47;;;;;;;1.83;0.60;;;12.10;99.90;;;;;;4957227;28;20062;-76
2023/12/24 10:01:13;;;;;;;4.03;0.90;;;12.10;99.90;;;;;;4965001;28;20062;-76
2023/12/24 10:03:39;;;;;;;4.53;0.47;;;12.20;99.90;;;;;;4964008;28;20050;-76
2023/12/24 10:06:07;;;;;;;4.47;0.55;;;12.20;99.90;;;;;;4951065;28;20480;-75
2023/12/24 10:08:37;;;;;;;7.32;0.63;;;12.20;99.90;;;;;;4994169;28;20039;-76
2023/12/24 10:11:16;;;;;;;2.75;0.30;;;12.20;99.90;;;;;;4974029;28;20035;-76
2023/12/24 10:13:44;;;;;;;5.40;0.55;;;12.30;99.90;;;;;;4946997;28;20042;-76
2023/12/24 10:16:10;;;;;;;0.63;0.30;;;12.30;99.90;;;;;;4962234;28;20442;-75
2023/12/24 10:18:36;;;;;;;0.95;0.28;;;12.30;99.90;;;;;;4995845;28;20125;-76
2023/12/24 10:21:07;;;;;;;7.30;0.57;;;12.40;99.90;;;;;;4962505;28;20086;-76
2023/12/24 10:23:33;;;;;;;1.63;0.47;;;12.40;99.90;;;;;;4943911;28;20043;-76
2023/12/24 10:26:04;;;;;;;3.60;0.93;;;12.40;99.90;;;;;;4962012;28;20045;-75
2023/12/24 10:28:32;;;;;;;2.38;0.40;;;12.40;99.90;;;;;;4960234;28;20062;-76
2023/12/24 10:31:06;;;;;;;3.03;0.85;;;12.40;99.90;;;;;;4960033;28;20046;-76
2023/12/24 10:33:32;;;;;;;0.00;0.00;;;12.40;99.90;;;;;;4950457;28;20031;-76
2023/12/24 10:35:57;;;;;;;2.92;0.50;;;12.40;99.90;;;;;;4963788;28;20403;-76
2023/12/24 10:38:26;;;;;;;0.00;0.00;;;12.50;99.90;;;;;;4946106;28;20047;-76
2023/12/24 10:40:52;;;;;;;1.02;0.25;;;12.50;99.90;;;;;;4961559;28;20066;-76
2023/12/24 10:43:19;;;;;;;8.63;1.27;;;12.50;99.90;;;;;;4964743;28;20435;-76
2023/12/24 10:45:45;;;;;;;2.70;0.75;;;12.50;99.90;;;;;;4961532;28;20054;-76
2023/12/24 10:48:11;;;;;;;1.20;0.20;;;12.60;99.90;;;;;;4998352;28;20703;-76
2023/12/24 10:50:37;;;;;;;1.05;0.40;;;12.60;99.90;;;;;;5002204;28;20133;-76
2023/12/24 10:53:03;;;;;;;1.88;0.30;;;12.60;99.90;;;;;;4964545;28;20082;-76
2023/12/24 10:55:34;;;;;;;2.17;0.52;;;12.70;99.90;;;;;;5002732;28;20813;-76
2023/12/24 10:58:21;;;;;;;1.10;0.20;;;12.70;99.90;;;;;;4983169;28;20499;-76
2023/12/24 11:00:47;;;;;;;1.35;0.30;;;12.70;99.90;;;;;;4966886;28;20404;-76
2023/12/24 11:03:47;;;;;;;0.38;0.20;;;12.70;99.90;;;;;;4988685;28;20131;-76
2023/12/24 11:06:36;;;;;;;1.02;0.50;;;12.70;99.90;;;;;;4969769;28;20043;-76
2023/12/24 11:09:06;;;;;;;1.95;0.52;;;12.70;99.90;;;;;;4998827;28;20047;-76
2023/12/24 11:12:04;;;;;;;1.65;0.30;;;12.70;99.90;;;;;;4955188;28;20046;-76
2023/12/24 11:14:45;;;;;;;0.28;0.20;;;12.70;99.90;;;;;;4926565;28;20047;-76
2023/12/24 11:17:31;;;;;;;1.42;0.73;;;12.70;99.90;;;;;;4986670;28;20403;-76
2023/12/24 11:20:16;;;;;;;3.03;0.28;;;12.70;99.90;;;;;;4939124;28;20499;-76
2023/12/24 11:23:02;;;;;;;3.95;0.68;;;12.70;99.90;;;;;;5004592;28;20034;-76
2023/12/24 11:25:47;;;;;;;1.35;0.05;;;12.70;99.90;;;;;;4966857;28;20042;-76
2023/12/24 11:28:36;;;;;;;3.65;0.88;;;12.60;99.90;;;;;;4990419;28;20043;-76
2023/12/24 11:31:04;;;;;;;2.92;0.98;;;12.60;99.90;;;;;;4963620;28;20045;-76
2023/12/24 11:33:32;;;;;;;0.35;0.20;;;12.70;99.90;;;;;;4986798;28;20047;-76
2023/12/24 11:36:04;;;;;;;0.43;0.20;;;12.70;99.90;;;;;;4994497;28;20081;-76
2023/12/24 11:38:36;;;;;;;2.95;0.50;;;12.70;99.90;;;;;;4951341;28;20080;-76
2023/12/24 11:41:13;;;;;;;3.00;1.27;;;12.70;99.90;;;;;;4961176;28;20109;-75
2023/12/24 11:43:41;;;;;;;1.45;0.63;;;12.70;99.90;;;;;;4972653;28;20097;-76
2023/12/24 11:46:08;;;;;;;3.90;0.55;;;12.80;99.90;;;;;;4953149;28;20038;-76
2023/12/24 11:48:35;;;;;;;1.50;0.70;;;12.70;99.90;;;;;;4970498;28;20118;-76
2023/12/24 11:51:06;;;;;;;0.75;0.38;;;12.80;99.90;;;;;;4962660;28;20129;-75
2023/12/24 11:53:33;;;;;;;3.85;0.68;;;12.70;99.90;;;;;;4998061;28;20122;-76
2023/12/24 11:56:18;;;;;;;0.10;0.00;;;12.80;99.90;;;;;;4947579;28;20034;-75
2023/12/24 11:58:50;;;;;;;3.53;0.88;;;12.80;99.90;;;;;;4977320;28;20051;-75
2023/12/24 12:01:26;;;;;;;1.95;0.25;;;12.80;99.90;;;;;;4963925;28;20063;-75
2023/12/24 12:03:59;;;;;;;0.55;0.45;;;12.80;99.90;;;;;;4984875;28;20046;-75
2023/12/24 12:06:29;;;;;;;0.08;0.08;;;12.80;99.90;;;;;;4995824;28;20051;-76
2023/12/24 12:08:58;;;;;;;4.30;0.30;;;12.80;99.90;;;;;;4965415;28;20043;-75
2023/12/24 12:11:24;;;;;;;0.08;0.05;;;12.80;99.90;;;;;;4962929;28;20531;-75
2023/12/24 12:13:50;;;;;;;4.20;0.40;;;12.80;99.90;;;;;;4966797;28;20049;-76
2023/12/24 12:16:16;;;;;;;4.10;0.85;;;12.80;99.90;;;;;;4994462;28;20047;-75
2023/12/24 12:18:41;;;;;;;1.00;0.10;;;12.80;99.90;;;;;;4986831;28;20093;-75
2023/12/24 12:21:10;;;;;;;1.48;0.40;;;12.80;99.90;;;;;;4972081;28;20038;-76
2023/12/24 12:23:40;;;;;;;1.38;0.20;;;12.80;99.90;;;;;;4964019;28;20113;-76
2023/12/24 12:26:08;;;;;;;0.20;0.20;;;12.80;99.90;;;;;;4948826;28;20506;-76
2023/12/24 12:28:37;;;;;;;2.83;0.10;;;12.80;99.90;;;;;;4997644;28;20141;-76
2023/12/24 12:31:04;;;;;;;0.38;0.20;;;12.80;99.90;;;;;;4946454;28;20060;-75
2023/12/24 12:33:30;;;;;;;2.25;0.40;;;12.80;99.90;;;;;;4968105;28;20507;-76
2023/12/24 12:35:56;;;;;;;5.50;0.98;;;12.80;99.90;;;;;;4963992;28;20152;-75
2023/12/24 12:38:22;;;;;;;0.32;0.17;;;12.80;99.90;;;;;;4969809;28;20050;-75
2023/12/24 12:40:49;;;;;;;1.40;0.30;;;12.80;99.90;;;;;;4947800;28;20094;-76
2023/12/24 12:43:20;;;;;;;0.52;0.10;;;12.80;99.90;;;;;;4953537;28;20057;-76
2023/12/24 12:45:47;;;;;;;2.33;0.20;;;12.80;99.90;;;;;;4953902;28;20031;-75
2023/12/24 12:48:15;;;;;;;1.80;0.45;;;12.70;99.90;;;;;;4962548;28;20135;-75